Time;durP1;ratioP1;P1;durP2;ratioP2;P2;SDS_P1;SDS_P2;PMS_P1;PMS_P2;Temp;Humidity;BMP_temperature;BMP_pressure;BME280_temperature;BME280_humidity;BME280_pressure;Samples;Min_cycle;Max_cycle;Signal;HPM_P1;HPM_P2
2021/09/25 00:00:35;;;;;;;7.67;6.80;;;;;;;14.47;82.94;96875.03;5112667;28;20184;-63
2021/09/25 00:03:05;;;;;;;7.70;6.40;;;;;;;14.43;83.06;96868.66;5112704;28;20632;-63
2021/09/25 00:05:38;;;;;;;8.43;6.30;;;;;;;14.43;82.87;96875.78;5093983;28;20236;-63
2021/09/25 00:08:05;;;;;;;9.23;6.87;;;;;;;14.41;82.65;96865.47;5112759;28;20172;-63
2021/09/25 00:10:32;;;;;;;7.30;6.57;;;;;;;14.32;82.69;96869.56;5112902;28;20198;-63
2021/09/25 00:12:58;;;;;;;8.07;6.13;;;;;;;14.33;82.58;96865.88;5112699;28;20184;-62
2021/09/25 00:15:29;;;;;;;7.03;6.17;;;;;;;14.33;82.69;96873.00;5112821;28;20241;-62
2021/09/25 00:17:56;;;;;;;8.43;6.73;;;;;;;14.42;82.19;96869.72;5112787;28;20291;-62
2021/09/25 00:20:22;;;;;;;7.90;6.43;;;;;;;14.24;83.22;96874.50;5112662;28;20186;-62
2021/09/25 00:22:47;;;;;;;7.00;6.30;;;;;;;14.20;83.43;96871.56;5112431;28;20172;-62
2021/09/25 00:25:13;;;;;;;8.57;5.90;;;;;;;14.06;84.08;96865.84;5112399;28;20180;-62
2021/09/25 00:27:38;;;;;;;6.87;6.17;;;;;;;14.08;84.15;96874.31;5113586;28;20644;-62
2021/09/25 00:30:07;;;;;;;7.93;6.20;;;;;;;14.09;84.04;96875.91;5116226;28;20632;-62
2021/09/25 00:32:33;;;;;;;7.20;6.43;;;;;;;14.01;84.33;96871.06;5116109;28;20203;-62
2021/09/25 00:34:59;;;;;;;10.00;6.50;;;;;;;14.04;83.87;96869.78;5115834;28;20211;-62
2021/09/25 00:37:24;;;;;;;11.13;6.97;;;;;;;14.16;83.71;96870.44;5116146;28;20223;-62
2021/09/25 00:39:49;;;;;;;8.33;7.07;;;;;;;14.17;83.73;96866.75;5097559;28;20195;-62
2021/09/25 00:42:15;;;;;;;10.30;7.90;;;;;;;14.21;84.28;96869.72;5115814;28;20262;-62
2021/09/25 00:44:40;;;;;;;10.93;8.50;;;;;;;14.09;85.15;96868.00;5096960;28;20215;-62
2021/09/25 00:47:06;;;;;;;13.83;9.50;;;;;;;14.17;84.98;96869.41;5116054;28;20184;-62
2021/09/25 00:49:31;;;;;;;10.60;9.20;;;;;;;13.87;86.70;96874.31;5115535;28;20227;-62
2021/09/25 00:51:57;;;;;;;9.83;8.83;;;;;;;13.84;86.83;96867.69;5115890;28;20179;-62
2021/09/25 00:54:22;;;;;;;11.40;9.67;;;;;;;13.82;87.20;96875.03;5115467;28;20191;-62
2021/09/25 00:56:48;;;;;;;13.30;10.23;;;;;;;13.77;87.56;96872.34;5075304;28;20197;-62
2021/09/25 00:59:15;;;;;;;13.17;9.10;;;;;;;13.79;87.81;96874.75;5074845;28;20526;-62
2021/09/25 01:01:41;;;;;;;12.27;9.70;;;;;;;13.61;88.74;96874.00;5075217;28;20271;-62
2021/09/25 01:04:07;;;;;;;11.07;9.57;;;;;;;13.58;89.51;96871.84;5075089;28;20254;-62
2021/09/25 01:06:33;;;;;;;13.27;9.07;;;;;;;13.48;90.09;96874.34;5074366;28;20635;-62
2021/09/25 01:08:58;;;;;;;12.20;9.63;;;;;;;13.47;90.21;96879.84;5074873;28;20185;-62
2021/09/25 01:11:25;;;;;;;11.40;10.00;;;;;;;13.40;90.88;96877.38;5073883;28;20208;-62
2021/09/25 01:13:53;;;;;;;10.77;9.50;;;;;;;13.39;91.27;96875.78;5074567;28;20196;-62
2021/09/25 01:16:19;;;;;;;13.03;9.77;;;;;;;13.41;90.99;96876.34;5075036;28;20220;-62
2021/09/25 01:18:44;;;;;;;16.40;9.73;;;;;;;13.43;90.96;96873.50;5074304;28;20197;-62
2021/09/25 01:21:10;;;;;;;15.17;10.30;;;;;;;13.49;90.38;96875.13;5073949;28;20189;-64
2021/09/25 01:23:37;;;;;;;15.77;10.47;;;;;;;13.62;89.23;96872.16;5074196;28;20656;-63
2021/09/25 01:26:03;;;;;;;17.13;10.23;;;;;;;13.32;90.95;96868.06;5074097;28;20239;-63
2021/09/25 01:28:31;;;;;;;14.30;10.40;;;;;;;13.39;90.64;96869.72;5074782;28;20203;-63
2021/09/25 01:30:56;;;;;;;11.70;10.17;;;;;;;13.26;91.16;96857.72;5074414;28;20180;-63
2021/09/25 01:33:38;;;;;;;10.90;9.53;;;;;;;13.04;92.29;96848.94;5073482;28;20181;-63
2021/09/25 01:36:07;;;;;;;12.00;9.07;;;;;;;13.23;91.16;96856.34;5074400;28;20208;-63
2021/09/25 01:38:34;;;;;;;12.10;9.87;;;;;;;13.18;91.18;96855.47;5074110;28;20552;-63
2021/09/25 01:40:59;;;;;;;11.80;10.17;;;;;;;13.17;91.15;96856.50;5073409;28;20542;-63
2021/09/25 01:43:25;;;;;;;11.23;9.27;;;;;;;12.98;92.03;96855.94;5073885;28;20189;-63
2021/09/25 01:45:50;;;;;;;12.97;9.97;;;;;;;12.89;92.61;96855.53;5074191;28;20189;-63
2021/09/25 01:48:16;;;;;;;11.23;9.73;;;;;;;13.15;91.22;96863.88;5074265;28;20181;-63
2021/09/25 01:50:42;;;;;;;11.97;9.70;;;;;;;13.21;90.53;96860.25;5074039;28;20188;-63
2021/09/25 01:53:09;;;;;;;11.27;9.00;;;;;;;13.32;89.45;96864.63;5073839;28;20196;-63
2021/09/25 01:55:35;;;;;;;13.60;9.50;;;;;;;13.51;88.43;96879.13;5094229;28;20563;-63
2021/09/25 01:58:00;;;;;;;13.90;11.40;;;;;;;13.42;89.65;96871.88;5114485;28;20208;-62
2021/09/25 02:00:26;;;;;;;13.30;10.63;;;;;;;13.22;90.85;96875.00;5114512;28;20209;-63
2021/09/25 02:02:52;;;;;;;14.83;10.67;;;;;;;13.09;91.88;96865.59;5113876;28;20180;-63
2021/09/25 02:05:18;;;;;;;14.20;10.53;;;;;;;13.07;92.12;96875.56;5114758;28;20625;-63
2021/09/25 02:07:47;;;;;;;11.70;9.67;;;;;;;12.90;93.20;96874.75;5114193;28;20180;-63
2021/09/25 02:10:12;;;;;;;14.27;10.93;;;;;;;12.99;93.18;96870.66;5114579;28;20184;-62
2021/09/25 02:12:38;;;;;;;13.70;11.40;;;;;;;12.90;93.57;96866.84;5114277;28;20180;-62
2021/09/25 02:15:05;;;;;;;15.20;11.40;;;;;;;12.76;94.10;96879.50;5114363;28;20186;-62
2021/09/25 02:17:31;;;;;;;16.67;11.30;;;;;;;12.90;92.44;96875.56;5113897;28;20200;-62
2021/09/25 02:19:56;;;;;;;11.10;9.23;;;;;;;12.68;92.87;96877.28;5113636;28;20232;-62
2021/09/25 02:22:22;;;;;;;10.30;9.23;;;;;;;12.53;93.55;96881.47;5114098;28;20176;-62
2021/09/25 02:24:47;;;;;;;10.63;8.13;;;;;;;12.61;92.76;96876.63;5113281;28;20188;-62
2021/09/25 02:27:13;;;;;;;9.07;8.17;;;;;;;12.61;92.49;96879.25;5114104;28;20241;-62
2021/09/25 02:29:38;;;;;;;9.77;7.93;;;;;;;12.67;92.15;96878.31;5113906;28;20180;-62
2021/09/25 02:32:05;;;;;;;10.03;8.70;;;;;;;12.62;91.82;96880.84;5114050;28;20632;-62
2021/09/25 02:34:30;;;;;;;10.87;8.67;;;;;;;12.78;91.08;96877.44;5112960;28;20224;-62
2021/09/25 02:36:57;;;;;;;9.70;8.27;;;;;;;12.66;91.18;96876.72;5113318;28;20916;-62
2021/09/25 02:39:24;;;;;;;7.80;7.00;;;;;;;12.62;91.80;96886.13;5113916;28;20207;-62
2021/09/25 02:41:50;;;;;;;10.07;7.77;;;;;;;12.54;92.39;96885.72;5113939;28;20206;-62
2021/09/25 02:44:15;;;;;;;9.70;8.20;;;;;;;12.55;92.35;96882.03;5113058;28;20229;-62
2021/09/25 02:46:40;;;;;;;8.97;8.07;;;;;;;12.74;90.88;96867.66;5113394;28;20176;-62
2021/09/25 02:49:06;;;;;;;9.10;8.17;;;;;;;12.79;90.54;96865.09;5113523;28;20294;-62
2021/09/25 02:51:31;;;;;;;7.57;6.87;;;;;;;12.61;91.29;96874.00;5112471;28;20259;-62
2021/09/25 02:53:57;;;;;;;7.87;6.90;;;;;;;12.50;91.84;96859.88;5113368;28;20195;-62
2021/09/25 02:56:22;;;;;;;9.33;7.03;;;;;;;12.48;92.12;96858.53;5113763;28;20228;-62
2021/09/25 02:58:48;;;;;;;7.80;6.97;;;;;;;12.63;91.40;96848.28;5113688;28;20199;-62
2021/09/25 03:01:13;;;;;;;8.27;7.00;;;;;;;12.69;90.45;96842.06;5113264;28;20186;-62
2021/09/25 03:03:38;;;;;;;7.73;6.93;;;;;;;12.67;90.66;96844.13;5094542;28;20388;-62
2021/09/25 03:06:04;;;;;;;8.90;6.37;;;;;;;12.55;91.11;96848.66;5113285;28;20190;-62
2021/09/25 03:08:29;;;;;;;8.37;6.83;;;;;;;12.69;90.59;96843.91;5113545;28;20219;-62
2021/09/25 03:10:55;;;;;;;7.10;6.40;;;;;;;12.77;89.92;96843.50;5113254;28;20191;-62
2021/09/25 03:13:20;;;;;;;7.57;6.10;;;;;;;12.83;89.26;96837.28;5113353;28;20229;-62
2021/09/25 03:15:45;;;;;;;8.27;7.20;;;;;;;12.71;90.06;96836.53;5113199;28;20180;-62
2021/09/25 03:18:11;;;;;;;8.97;7.40;;;;;;;12.65;90.24;96838.28;5113265;28;20200;-62
2021/09/25 03:20:36;;;;;;;8.80;6.50;;;;;;;12.50;91.20;96844.09;5095123;28;20191;-62
2021/09/25 03:23:02;;;;;;;8.73;6.67;;;;;;;12.51;91.30;96839.66;5113402;28;20263;-62
2021/09/25 03:25:27;;;;;;;7.97;7.17;;;;;;;12.62;90.45;96832.72;5112214;28;20188;-62
2021/09/25 03:27:56;;;;;;;9.83;7.83;;;;;;;12.57;90.30;96837.91;5112831;28;20218;-62
2021/09/25 03:30:22;;;;;;;12.17;8.87;;;;;;;12.67;89.65;96838.06;5094755;28;20254;-62
2021/09/25 03:32:48;;;;;;;11.20;8.77;;;;;;;12.48;90.20;96840.13;5112757;28;20198;-62
2021/09/25 03:35:14;;;;;;;10.50;7.80;;;;;;;12.22;90.91;96836.25;5112957;28;20263;-62
2021/09/25 03:37:39;;;;;;;9.30;7.33;;;;;;;12.31;89.92;96834.84;5113067;28;20234;-62
2021/09/25 03:40:06;;;;;;;9.57;7.93;;;;;;;12.09;90.70;96829.44;5113099;28;20195;-62
2021/09/25 03:42:31;;;;;;;9.17;8.20;;;;;;;12.02;91.21;96833.25;5094123;28;20187;-62
2021/09/25 03:44:57;;;;;;;9.07;7.73;;;;;;;12.00;90.75;96819.53;5112484;28;20180;-62
2021/09/25 03:47:22;;;;;;;8.43;7.00;;;;;;;11.95;91.30;96828.13;5112821;28;20206;-62
2021/09/25 03:49:48;;;;;;;8.90;7.40;;;;;;;11.82;92.32;96835.47;5112650;28;20243;-62
2021/09/25 03:52:13;;;;;;;8.37;7.37;;;;;;;11.88;91.95;96843.22;5113173;28;20188;-62
2021/09/25 03:54:39;;;;;;;8.97;7.57;;;;;;;11.92;91.81;96841.75;5112505;28;20661;-62
2021/09/25 03:57:04;;;;;;;9.90;8.13;;;;;;;11.87;91.97;96843.47;5112906;28;20234;-62
2021/09/25 03:59:30;;;;;;;10.30;7.90;;;;;;;11.81;92.73;96841.78;5112637;28;20200;-62
2021/09/25 04:01:55;;;;;;;8.97;7.30;;;;;;;11.77;93.01;96835.38;5112974;28;20184;-62
2021/09/25 04:04:21;;;;;;;8.40;7.50;;;;;;;11.80;93.11;96837.53;5116584;28;20188;-62
2021/09/25 04:06:46;;;;;;;9.20;7.37;;;;;;;11.75;93.57;96843.50;5116908;28;20219;-62
2021/09/25 04:09:11;;;;;;;8.83;7.60;;;;;;;11.91;92.23;96831.47;5116316;28;20224;-62
2021/09/25 04:11:37;;;;;;;7.70;6.63;;;;;;;11.93;91.84;96834.63;5116584;28;20188;-62
2021/09/25 04:14:02;;;;;;;8.90;7.43;;;;;;;11.84;92.57;96828.97;5116614;28;20229;-61
2021/09/25 04:16:28;;;;;;;11.20;7.90;;;;;;;11.99;91.44;96829.25;5116483;28;20531;-62
2021/09/25 04:18:54;;;;;;;8.30;7.00;;;;;;;11.92;92.02;96828.59;5098178;28;20648;-62
2021/09/25 04:21:20;;;;;;;9.63;7.60;;;;;;;11.79;93.11;96834.13;5116435;28;20207;-62
2021/09/25 04:23:45;;;;;;;7.73;6.93;;;;;;;11.93;92.50;96832.00;5116225;28;20184;-62
2021/09/25 04:26:11;;;;;;;7.93;7.13;;;;;;;11.93;92.26;96838.06;5116113;28;20259;-62
2021/09/25 04:28:37;;;;;;;7.33;6.63;;;;;;;11.83;92.99;96837.88;5116705;28;20191;-62
2021/09/25 04:31:02;;;;;;;11.77;7.70;;;;;;;11.73;93.58;96835.03;5116563;28;20207;-62
2021/09/25 04:33:28;;;;;;;8.17;7.23;;;;;;;11.87;92.42;96838.22;5116283;28;20212;-62
2021/09/25 04:35:53;;;;;;;10.20;7.50;;;;;;;11.79;92.12;96835.94;5116088;28;20644;-61
2021/09/25 04:38:18;;;;;;;10.77;7.67;;;;;;;11.56;93.05;96836.75;5115985;28;20200;-61
2021/09/25 04:40:44;;;;;;;9.00;7.87;;;;;;;11.78;91.38;96848.28;5115805;28;20548;-62
2021/09/25 04:43:09;;;;;;;8.27;7.33;;;;;;;11.66;90.71;96848.25;5097197;28;20256;-62
2021/09/25 04:45:35;;;;;;;9.00;7.60;;;;;;;11.34;90.61;96846.25;5115371;28;20652;-62
2021/09/25 04:48:00;;;;;;;7.07;6.47;;;;;;;11.27;91.46;96843.75;5115955;28;20280;-62
2021/09/25 04:50:29;;;;;;;8.20;7.23;;;;;;;11.20;91.53;96841.22;5116232;28;20261;-62
2021/09/25 04:53:07;;;;;;;9.33;7.53;;;;;;;11.24;91.17;96850.28;5115219;28;20306;-62
2021/09/25 04:55:33;;;;;;;8.43;7.30;;;;;;;11.16;91.67;96845.34;5103361;28;20219;-62
2021/09/25 04:57:59;;;;;;;11.67;7.87;;;;;;;11.22;93.60;96851.50;5097992;28;20207;-62
2021/09/25 05:00:24;;;;;;;9.07;7.70;;;;;;;11.22;94.80;96854.94;5115657;28;20190;-62
2021/09/25 05:02:50;;;;;;;9.83;7.73;;;;;;;11.55;93.27;96849.09;5115519;28;20240;-62
2021/09/25 05:05:15;;;;;;;9.53;7.23;;;;;;;11.37;94.30;96858.94;5115929;28;20197;-62
2021/09/25 05:07:40;;;;;;;9.10;7.50;;;;;;;11.37;94.17;96857.09;5115249;28;20315;-62
2021/09/25 05:10:06;;;;;;;10.37;7.23;;;;;;;11.38;93.92;96853.44;5115746;28;20192;-61
2021/09/25 05:12:31;;;;;;;10.17;7.80;;;;;;;11.55;93.40;96853.53;5115507;28;20180;-62
2021/09/25 05:14:57;;;;;;;8.23;7.13;;;;;;;11.63;93.59;96840.88;5114663;28;20676;-61
2021/09/25 05:17:22;;;;;;;8.60;7.37;;;;;;;11.66;93.68;96844.84;5115622;28;20226;-62
2021/09/25 05:19:48;;;;;;;8.23;7.20;;;;;;;11.68;93.34;96845.41;5115360;28;20179;-62
2021/09/25 05:22:14;;;;;;;8.10;6.93;;;;;;;11.66;93.70;96852.72;5115450;28;20180;-62
2021/09/25 05:24:39;;;;;;;7.17;6.43;;;;;;;11.73;93.79;96848.16;5114958;28;20185;-62
2021/09/25 05:27:05;;;;;;;8.90;8.00;;;;;;;11.96;91.66;96857.81;5115498;28;20184;-62
2021/09/25 05:29:30;;;;;;;8.70;7.47;;;;;;;11.87;91.40;96854.75;5115442;28;20180;-62
2021/09/25 05:32:01;;;;;;;8.77;7.87;;;;;;;11.82;92.00;96851.22;5096902;28;20216;-61
2021/09/25 05:34:27;;;;;;;12.40;8.17;;;;;;;12.04;89.82;96849.56;5115291;28;20164;-62
2021/09/25 05:36:54;;;;;;;9.33;7.07;;;;;;;12.17;88.98;96845.88;5096280;28;20248;-62
2021/09/25 05:39:19;;;;;;;11.70;7.20;;;;;;;12.05;89.23;96844.06;5114832;28;20614;-61
2021/09/25 05:41:45;;;;;;;9.50;8.27;;;;;;;12.34;88.15;96847.50;5115023;28;20203;-62
2021/09/25 05:44:10;;;;;;;7.90;7.10;;;;;;;12.49;87.57;96844.34;5114360;28;20262;-62
2021/09/25 05:46:36;;;;;;;8.87;7.40;;;;;;;12.56;87.61;96828.41;5096256;28;20252;-62
2021/09/25 05:49:01;;;;;;;9.93;6.80;;;;;;;12.82;86.13;96836.47;5114748;28;20675;-62
2021/09/25 05:51:26;;;;;;;8.47;6.40;;;;;;;12.96;85.14;96830.91;5115108;28;20184;-62
2021/09/25 05:53:52;;;;;;;7.03;6.10;;;;;;;13.18;83.92;96837.84;5114787;28;20191;-62
2021/09/25 05:56:17;;;;;;;7.60;5.87;;;;;;;13.21;83.83;96836.56;5114668;28;20754;-62
2021/09/25 05:58:43;;;;;;;9.83;6.67;;;;;;;13.24;83.43;96844.00;5113674;28;20204;-62
2021/09/25 06:01:08;;;;;;;8.77;7.07;;;;;;;13.36;82.94;96851.78;5114082;28;20180;-62
2021/09/25 06:03:34;;;;;;;7.30;5.97;;;;;;;13.33;82.13;96851.22;5114464;28;20184;-62
2021/09/25 06:05:59;;;;;;;6.60;5.90;;;;;;;13.21;81.59;96841.81;5113866;28;20494;-62
2021/09/25 06:08:24;;;;;;;7.00;5.90;;;;;;;13.30;81.51;96845.66;5114789;28;20184;-62
2021/09/25 06:10:50;;;;;;;6.80;6.10;;;;;;;13.31;81.83;96847.25;5114532;28;20689;-62
2021/09/25 06:13:16;;;;;;;7.10;6.17;;;;;;;13.37;81.63;96841.03;5114189;28;20195;-62
2021/09/25 06:15:42;;;;;;;6.13;5.53;;;;;;;13.48;81.38;96847.22;5114093;28;20187;-62
2021/09/25 06:18:07;;;;;;;6.57;5.87;;;;;;;13.39;81.54;96843.38;5114313;28;20196;-62
2021/09/25 06:20:33;;;;;;;6.30;5.33;;;;;;;13.54;81.26;96851.53;5114137;28;20187;-62
2021/09/25 06:22:59;;;;;;;7.13;6.07;;;;;;;13.62;80.90;96848.44;5113727;28;20712;-62
2021/09/25 06:25:24;;;;;;;7.17;6.37;;;;;;;13.64;80.64;96849.00;5112999;28;20175;-62
2021/09/25 06:27:50;;;;;;;7.50;5.97;;;;;;;13.74;80.80;96846.50;5113382;28;20184;-62
2021/09/25 06:30:16;;;;;;;6.33;5.67;;;;;;;13.83;80.68;96847.66;5114187;28;20190;-62
2021/09/25 06:32:41;;;;;;;6.43;5.27;;;;;;;14.08;79.70;96840.06;5113749;28;20183;-62
2021/09/25 06:35:11;;;;;;;7.07;5.73;;;;;;;14.35;78.77;96847.19;5113533;28;20207;-62
2021/09/25 06:37:37;;;;;;;6.23;4.90;;;;;;;14.61;77.52;96838.50;5113734;28;20211;-63
2021/09/25 06:40:05;;;;;;;5.60;4.73;;;;;;;14.82;76.57;96839.47;5113470;28;20184;-62
2021/09/25 06:42:30;;;;;;;8.13;6.10;;;;;;;14.78;76.46;96847.09;5112862;28;20185;-64
2021/09/25 06:44:56;;;;;;;10.37;7.07;;;;;;;15.02;75.74;96846.75;5112691;28;20511;-63
2021/09/25 06:47:21;;;;;;;10.43;6.10;;;;;;;15.01;76.38;96853.06;5094860;28;20183;-63
2021/09/25 06:49:46;;;;;;;7.10;5.03;;;;;;;15.19;75.01;96856.13;5112519;28;20176;-64
2021/09/25 06:52:12;;;;;;;5.63;4.53;;;;;;;15.36;74.35;96856.75;5095643;28;20233;-64
2021/09/25 06:54:37;;;;;;;5.20;4.70;;;;;;;15.58;73.50;96861.13;5111705;28;20180;-64
2021/09/25 06:57:04;;;;;;;6.80;4.60;;;;;;;15.55;73.28;96859.78;5112791;28;20260;-64
2021/09/25 06:59:29;;;;;;;5.17;4.67;;;;;;;15.70;73.12;96853.81;5112574;28;20228;-64
2021/09/25 07:01:55;;;;;;;5.97;4.30;;;;;;;15.78;72.37;96858.59;5112401;28;20266;-64
2021/09/25 07:04:21;;;;;;;6.07;3.60;;;;;;;15.90;80.50;96853.88;5112243;28;20267;-65
2021/09/25 07:06:46;;;;;;;5.13;4.33;;;;;;;16.58;72.87;96857.25;5111729;28;20184;-64
2021/09/25 07:09:12;;;;;;;6.03;4.60;;;;;;;16.91;69.52;96858.63;5093929;28;20188;-63
2021/09/25 07:11:37;;;;;;;9.47;3.80;;;;;;;16.94;69.12;96858.91;5111973;28;20192;-61
2021/09/25 07:14:04;;;;;;;5.43;4.30;;;;;;;17.01;68.06;96850.69;5112192;28;20524;-61
2021/09/25 07:16:30;;;;;;;7.10;4.43;;;;;;;16.96;68.26;96863.94;5112381;28;20194;-62
2021/09/25 07:18:55;;;;;;;4.73;4.13;;;;;;;17.04;67.97;96869.50;5112010;28;20207;-62
2021/09/25 07:21:21;;;;;;;5.60;4.53;;;;;;;17.11;67.83;96855.22;5111836;28;20265;-62
2021/09/25 07:23:46;;;;;;;6.40;5.30;;;;;;;17.36;66.93;96861.25;5112656;28;20604;-61
2021/09/25 07:26:12;;;;;;;7.30;5.77;;;;;;;17.42;66.60;96862.84;5112296;28;20221;-61
2021/09/25 07:28:37;;;;;;;6.40;5.17;;;;;;;17.38;66.40;96872.41;5112931;28;20223;-62
2021/09/25 07:31:05;;;;;;;6.23;4.50;;;;;;;17.62;65.81;96872.63;5112870;28;20180;-61
2021/09/25 07:33:30;;;;;;;5.63;4.67;;;;;;;17.43;65.77;96874.25;5112860;28;20176;-61
2021/09/25 07:35:56;;;;;;;6.23;4.53;;;;;;;17.41;66.29;96877.16;5112518;28;20177;-61
2021/09/25 07:38:21;;;;;;;5.57;4.50;;;;;;;17.58;65.44;96876.06;5114950;28;20206;-61
2021/09/25 07:40:47;;;;;;;5.80;4.50;;;;;;;17.53;66.01;96882.16;5098565;28;20184;-61
2021/09/25 07:43:12;;;;;;;4.53;4.13;;;;;;;17.52;65.77;96877.91;5116318;28;20179;-61
2021/09/25 07:45:38;;;;;;;5.00;4.30;;;;;;;17.68;65.02;96884.81;5116518;28;20708;-62
2021/09/25 07:48:04;;;;;;;5.00;4.13;;;;;;;17.70;65.51;96889.84;5116825;28;20194;-61
2021/09/25 07:50:29;;;;;;;4.77;4.37;;;;;;;17.69;65.73;96899.66;5117069;28;20512;-61
2021/09/25 07:52:57;;;;;;;5.63;4.10;;;;;;;17.83;65.65;96890.06;5116480;28;20204;-61
2021/09/25 07:55:25;;;;;;;4.83;4.40;;;;;;;17.82;66.52;96885.06;5116243;28;20702;-61
2021/09/25 07:57:50;;;;;;;5.27;4.37;;;;;;;17.90;66.55;96884.47;5116517;28;20188;-61
2021/09/25 08:00:16;;;;;;;6.10;4.83;;;;;;;18.12;65.78;96884.94;5116245;28;20198;-61
2021/09/25 08:02:42;;;;;;;6.33;4.47;;;;;;;18.16;65.01;96883.34;5116307;28;20184;-62
2021/09/25 08:05:09;;;;;;;6.60;4.30;;;;;;;18.23;64.04;96890.97;5116574;28;20245;-61
2021/09/25 08:07:35;;;;;;;4.33;3.93;;;;;;;18.04;64.27;96888.16;5098425;28;20534;-61
2021/09/25 08:10:00;;;;;;;5.37;4.00;;;;;;;18.26;63.72;96888.59;5116157;28;20191;-61
2021/09/25 08:12:26;;;;;;;4.93;4.30;;;;;;;18.36;63.72;96890.41;5116260;28;20188;-62
2021/09/25 08:14:51;;;;;;;5.28;4.10;;;;;;;18.45;63.62;96887.94;5115943;28;20259;-62
2021/09/25 08:17:17;;;;;;;4.20;3.88;;;;;;;18.57;63.46;96891.09;5097982;28;20289;-63
2021/09/25 08:19:42;;;;;;;4.38;3.97;;;;;;;18.68;63.31;96879.34;5115428;28;20208;-62
2021/09/25 08:22:08;;;;;;;4.40;4.00;;;;;;;18.76;62.75;96875.31;5115609;28;20176;-63
2021/09/25 08:24:33;;;;;;;6.35;4.22;;;;;;;18.76;63.33;96876.13;5111831;28;20190;-63
2021/09/25 08:26:58;;;;;;;5.32;3.80;;;;;;;18.90;62.57;96876.28;5116078;28;20223;-63
2021/09/25 08:29:24;;;;;;;6.45;4.03;;;;;;;18.91;62.77;96880.53;5115791;28;20591;-63
2021/09/25 08:31:49;;;;;;;4.47;4.03;;;;;;;18.91;62.41;96876.00;5116259;28;20187;-62
2021/09/25 08:34:16;;;;;;;4.28;3.85;;;;;;;19.10;61.56;96878.78;5116226;28;20211;-62
2021/09/25 08:36:42;;;;;;;7.03;4.05;;;;;;;19.05;62.46;96886.81;5115667;28;20184;-63
2021/09/25 08:39:08;;;;;;;5.18;4.10;;;;;;;19.10;61.73;96876.94;5097270;28;20240;-62
2021/09/25 08:41:35;;;;;;;3.67;3.38;;;;;;;19.04;61.96;96874.59;5114977;28;20249;-62
2021/09/25 08:44:00;;;;;;;6.50;3.85;;;;;;;19.11;63.43;96877.72;5114541;28;20190;-62
2021/09/25 08:46:26;;;;;;;5.18;4.13;;;;;;;19.13;61.54;96880.88;5115248;28;20192;-62
2021/09/25 08:48:54;;;;;;;5.78;3.83;;;;;;;19.14;61.30;96873.72;5115490;28;20202;-63
2021/09/25 08:51:19;;;;;;;4.13;3.72;;;;;;;18.94;62.11;96880.78;5096045;28;20184;-63
2021/09/25 08:53:45;;;;;;;5.55;3.70;;;;;;;19.06;62.20;96878.53;5115168;28;20184;-62
2021/09/25 08:56:12;;;;;;;4.72;3.88;;;;;;;19.10;61.84;96871.63;5115611;28;20251;-62
2021/09/25 08:58:38;;;;;;;4.57;3.92;;;;;;;18.80;62.57;96873.69;5115285;28;20566;-62
2021/09/25 09:01:04;;;;;;;3.85;3.50;;;;;;;18.90;61.85;96877.06;5115841;28;20306;-62
2021/09/25 09:03:37;;;;;;;6.90;4.00;;;;;;;19.09;61.81;96871.88;5115324;28;20195;-63
2021/09/25 09:06:02;;;;;;;5.97;5.00;;;;;;;19.01;64.97;96867.94;5115439;28;20344;-63
2021/09/25 09:08:28;;;;;;;6.53;4.30;;;;;;;19.04;64.66;96871.94;5114282;28;20275;-63
2021/09/25 09:10:54;;;;;;;5.50;4.63;;;;;;;19.01;65.48;96872.47;5115295;28;20225;-62
2021/09/25 09:13:20;;;;;;;5.65;4.82;;;;;;;19.07;65.22;96874.81;5114576;28;20632;-63
2021/09/25 09:15:50;;;;;;;6.28;4.65;;;;;;;19.10;64.75;96874.28;5096772;28;20206;-62
2021/09/25 09:18:18;;;;;;;8.50;5.20;;;;;;;19.03;64.13;96865.81;5096742;28;20212;-63
2021/09/25 09:21:03;;;;;;;8.45;5.57;;;;;;;19.06;64.32;96873.22;5114385;28;20255;-62
2021/09/25 09:23:30;;;;;;;6.43;5.10;;;;;;;19.09;65.37;96877.19;5114656;28;20597;-62
2021/09/25 09:25:56;;;;;;;5.32;4.53;;;;;;;19.13;64.96;96870.25;5113826;28;20184;-62
2021/09/25 09:28:31;;;;;;;18.23;4.97;;;;;;;19.02;65.55;96866.09;5115114;28;20195;-62
2021/09/25 09:30:59;;;;;;;6.18;4.70;;;;;;;19.27;65.50;96871.22;5115045;28;20172;-63
2021/09/25 09:33:35;;;;;;;5.05;4.53;;;;;;;19.11;66.32;96867.88;5114638;28;20184;-63
2021/09/25 09:36:18;;;;;;;5.57;4.40;;;;;;;19.06;66.03;96865.25;5114564;28;20263;-62
2021/09/25 09:38:58;;;;;;;5.15;4.47;;;;;;;19.23;66.33;96866.72;5114576;28;20191;-62
2021/09/25 09:41:28;;;;;;;5.35;4.32;;;;;;;19.31;65.41;96863.47;5096131;28;20180;-62
2021/09/25 09:43:59;;;;;;;5.57;4.13;;;;;;;19.16;64.84;96869.72;5114054;28;20180;-61
2021/09/25 09:46:35;;;;;;;4.82;4.15;;;;;;;19.42;65.48;96862.28;5115265;28;20157;-62
2021/09/25 09:49:00;;;;;;;6.05;4.50;;;;;;;19.46;64.30;96863.34;5094849;28;20184;-61
2021/09/25 09:51:52;;;;;;;6.47;4.20;;;;;;;19.57;63.63;96856.84;5095970;28;20247;-62
2021/09/25 09:54:25;;;;;;;4.72;4.05;;;;;;;19.71;62.37;96856.97;5108441;28;20264;-63
2021/09/25 09:56:55;;;;;;;5.40;4.55;;;;;;;19.62;62.77;96856.78;5113656;28;20552;-62
2021/09/25 09:59:21;;;;;;;4.13;3.65;;;;;;;19.82;62.87;96855.78;5113952;28;20203;-62
2021/09/25 10:01:48;;;;;;;3.75;3.33;;;;;;;19.97;61.73;96857.47;5113894;28;20263;-62
2021/09/25 10:04:14;;;;;;;3.67;3.22;;;;;;;20.10;60.71;96856.78;5114001;28;20275;-63
2021/09/25 10:06:41;;;;;;;5.15;4.05;;;;;;;20.07;60.38;96855.47;5114058;28;20191;-62
2021/09/25 10:09:12;;;;;;;16.20;4.10;;;;;;;20.07;59.63;96855.47;5120326;27;20612;-62
2021/09/25 10:11:40;;;;;;;6.95;3.65;;;;;;;20.11;59.26;96851.19;5113729;27;20180;-62
2021/09/25 10:14:07;;;;;;;4.55;3.83;;;;;;;20.23;59.01;96845.41;5113104;28;20651;-61
2021/09/25 10:16:33;;;;;;;4.32;3.47;;;;;;;20.34;58.75;96846.91;5114122;28;20213;-61
2021/09/25 10:19:01;;;;;;;4.10;3.38;;;;;;;20.41;57.80;96843.88;5114124;28;20242;-61
2021/09/25 10:21:28;;;;;;;3.55;3.25;;;;;;;20.47;57.25;96843.53;5113710;28;20180;-62
2021/09/25 10:24:20;;;;;;;4.45;2.85;;;;;;;20.63;57.01;96838.78;5113127;28;20183;-62
2021/09/25 10:26:47;;;;;;;3.83;3.30;;;;;;;20.63;56.96;96836.91;5114026;28;20176;-62
2021/09/25 10:29:24;;;;;;;3.38;3.08;;;;;;;20.67;56.75;96831.81;5113367;28;20180;-63
2021/09/25 10:32:27;;;;;;;3.78;3.17;;;;;;;20.81;57.61;96832.63;5113995;28;20176;-63
2021/09/25 10:35:11;;;;;;;3.55;3.10;;;;;;;20.86;58.64;96832.56;5113045;28;20529;-63
2021/09/25 10:37:41;;;;;;;3.45;3.15;;;;;;;20.84;58.55;96828.63;5098837;28;20172;-63
2021/09/25 10:40:13;;;;;;;3.90;3.50;;;;;;;20.80;57.88;96833.72;5112240;28;20639;-63
2021/09/25 10:42:45;;;;;;;3.47;3.17;;;;;;;20.40;58.49;96829.78;5112131;28;20283;-63
2021/09/25 10:45:21;;;;;;;4.20;2.97;;;;;;;20.42;58.76;96826.84;5112905;28;20179;-63
2021/09/25 10:48:05;;;;;;;3.70;3.22;;;;;;;20.31;60.01;96828.81;5113324;28;20178;-64
2021/09/25 10:50:31;;;;;;;4.18;3.47;;;;;;;20.13;60.18;96824.25;5113109;28;20176;-62
2021/09/25 10:53:13;;;;;;;4.00;3.33;;;;;;;20.55;58.28;96828.78;5113420;28;20261;-63
2021/09/25 10:55:40;;;;;;;3.47;3.20;;;;;;;20.80;57.85;96817.72;5113374;28;20268;-63
2021/09/25 10:58:14;;;;;;;4.10;3.35;;;;;;;21.15;57.79;96805.72;5113236;28;20272;-63
2021/09/25 11:00:46;;;;;;;3.03;2.83;;;;;;;21.29;56.72;96809.19;5113224;28;20486;-63
2021/09/25 11:03:11;;;;;;;3.28;2.97;;;;;;;21.35;56.90;96807.22;5113257;28;20191;-63
2021/09/25 11:05:58;;;;;;;3.53;3.20;;;;;;;21.13;57.26;96805.97;5112986;28;20207;-63
2021/09/25 11:08:32;;;;;;;3.60;3.25;;;;;;;21.29;57.04;96809.19;5098769;28;20190;-63
2021/09/25 11:11:05;;;;;;;3.13;2.72;;;;;;;21.51;56.83;96808.56;5113413;28;20501;-63
2021/09/25 11:13:59;;;;;;;3.97;3.58;;;;;;;21.70;55.88;96813.78;5112204;28;20232;-63
2021/09/25 11:16:43;;;;;;;5.38;2.83;;;;;;;21.82;55.45;96803.41;5091637;28;20188;-63
2021/09/25 11:19:26;;;;;;;3.05;2.78;;;;;;;21.96;54.98;96813.00;5112803;28;20231;-63
2021/09/25 11:22:12;;;;;;;4.32;3.45;;;;;;;22.13;54.60;96807.03;5112746;28;20226;-63
2021/09/25 11:24:52;;;;;;;3.20;2.90;;;;;;;22.00;54.02;96807.06;5112801;28;20517;-63
2021/09/25 11:27:23;;;;;;;3.15;2.95;;;;;;;21.98;55.30;96802.03;5113005;28;20176;-63
2021/09/25 11:30:01;;;;;;;4.75;3.20;;;;;;;21.91;55.24;96794.38;5113377;28;20624;-63
2021/09/25 11:32:33;;;;;;;3.55;3.25;;;;;;;22.11;54.51;96797.75;5109184;28;20199;-63